Time;durP1;ratioP1;P1;durP2;ratioP2;P2;SDS_P1;SDS_P2;PMS_P1;PMS_P2;Temp;Humidity;BMP_temperature;BMP_pressure;BME280_temperature;BME280_humidity;BME280_pressure;Samples;Min_cycle;Max_cycle;Signal;HPM_P1;HPM_P2
2022/02/15 00:01:03;;;;;;;6.38;1.20;;;16.90;50.90;;;;;;5141590;27;20034;-52
2022/02/15 00:03:30;;;;;;;2.40;1.20;;;16.80;50.80;;;;;;5143773;27;20033;-49
2022/02/15 00:05:56;;;;;;;2.05;0.98;;;16.90;50.90;;;;;;5141219;27;20027;-50
2022/02/15 00:08:22;;;;;;;2.28;1.25;;;16.80;50.80;;;;;;5137263;27;20019;-46
2022/02/15 00:10:48;;;;;;;3.80;1.30;;;16.80;50.80;;;;;;5136466;27;20027;-47
2022/02/15 00:13:14;;;;;;;2.85;1.20;;;16.80;50.80;;;;;;5137517;27;20016;-50
2022/02/15 00:15:40;;;;;;;2.13;0.88;;;16.80;50.80;;;;;;5139942;27;20015;-48
2022/02/15 00:18:06;;;;;;;2.03;1.10;;;16.90;50.90;;;;;;5142787;27;20026;-50
2022/02/15 00:20:33;;;;;;;2.28;1.08;;;16.80;50.80;;;;;;5142058;27;20094;-50
2022/02/15 00:22:58;;;;;;;3.17;1.60;;;16.80;50.80;;;;;;5140062;27;20072;-51
2022/02/15 00:25:24;;;;;;;1.98;0.90;;;16.80;50.80;;;;;;5140058;27;20015;-52
2022/02/15 00:27:50;;;;;;;2.60;1.23;;;16.80;50.80;;;;;;5139335;27;20027;-50
2022/02/15 00:30:16;;;;;;;3.47;1.27;;;16.80;50.80;;;;;;5139564;27;20019;-49
2022/02/15 00:32:43;;;;;;;2.50;1.50;;;16.80;50.80;;;;;;5120538;28;20030;-49
2022/02/15 00:35:09;;;;;;;2.33;1.40;;;16.80;50.80;;;;;;5138998;27;20011;-49
2022/02/15 00:37:34;;;;;;;3.72;1.02;;;16.80;50.80;;;;;;5138541;27;20012;-48
2022/02/15 00:40:00;;;;;;;2.63;1.10;;;16.80;50.80;;;;;;5137957;27;20054;-46
2022/02/15 00:42:29;;;;;;;2.40;1.10;;;16.80;50.80;;;;;;5137096;27;20473;-49
2022/02/15 00:44:55;;;;;;;1.80;1.10;;;16.80;50.80;;;;;;5136896;28;20016;-47
2022/02/15 00:47:21;;;;;;;4.10;1.40;;;16.80;50.80;;;;;;5135494;28;20023;-46
2022/02/15 00:49:47;;;;;;;2.72;1.20;;;16.80;50.80;;;;;;5133823;27;20522;-46
2022/02/15 00:52:14;;;;;;;3.45;1.35;;;16.80;50.80;;;;;;5132923;28;20031;-45
2022/02/15 00:54:39;;;;;;;2.35;1.02;;;16.80;50.80;;;;;;5117588;28;20144;-50
2022/02/15 00:57:05;;;;;;;3.72;1.00;;;16.80;50.80;;;;;;5134915;27;20018;-50
2022/02/15 00:59:31;;;;;;;3.10;1.00;;;16.80;50.80;;;;;;5134424;27;20096;-50
2022/02/15 01:01:57;;;;;;;2.15;1.20;;;16.70;50.70;;;;;;5134702;28;20106;-47
2022/02/15 01:04:23;;;;;;;2.20;0.90;;;16.80;50.80;;;;;;5134145;28;20019;-49
2022/02/15 01:06:49;;;;;;;3.00;1.10;;;16.80;50.80;;;;;;5135641;27;20549;-51
2022/02/15 01:09:16;;;;;;;2.20;1.15;;;16.70;50.70;;;;;;5135645;27;20015;-50
2022/02/15 01:11:42;;;;;;;4.32;1.30;;;16.70;50.70;;;;;;5136725;27;20027;-47
2022/02/15 01:14:09;;;;;;;2.13;1.17;;;16.70;50.70;;;;;;5122614;27;20087;-49
2022/02/15 01:16:34;;;;;;;2.53;1.20;;;16.70;50.80;;;;;;5140593;27;20083;-49
2022/02/15 01:19:00;;;;;;;2.78;1.10;;;16.70;50.70;;;;;;5141744;27;20047;-49
2022/02/15 01:21:27;;;;;;;2.47;1.00;;;16.70;50.80;;;;;;5142656;27;20019;-47
2022/02/15 01:23:53;;;;;;;2.63;1.15;;;16.70;50.80;;;;;;5142438;27;20023;-50
2022/02/15 01:26:20;;;;;;;3.08;1.10;;;16.70;50.80;;;;;;5140707;27;20027;-54
2022/02/15 01:28:46;;;;;;;1.90;1.10;;;16.70;50.80;;;;;;5123511;27;20073;-52
2022/02/15 01:31:12;;;;;;;2.92;1.20;;;16.70;50.70;;;;;;5140684;27;20035;-49
2022/02/15 01:33:38;;;;;;;2.67;1.00;;;16.70;50.80;;;;;;5140322;27;20022;-54
2022/02/15 01:36:04;;;;;;;3.42;1.10;;;16.70;50.80;;;;;;5137941;27;20050;-51
2022/02/15 01:38:30;;;;;;;4.18;1.20;;;16.70;50.70;;;;;;5138857;27;20485;-52
2022/02/15 01:40:56;;;;;;;2.00;1.20;;;16.70;50.70;;;;;;5139391;27;20483;-52
2022/02/15 01:43:22;;;;;;;2.58;0.93;;;16.70;50.80;;;;;;5138731;27;20011;-52
2022/02/15 01:45:53;;;;;;;2.63;1.13;;;16.70;50.70;;;;;;5138665;27;20062;-52
2022/02/15 01:48:19;;;;;;;1.52;0.90;;;16.70;50.80;;;;;;5139824;27;20023;-53
2022/02/15 01:50:46;;;;;;;3.58;0.98;;;16.70;50.80;;;;;;5140689;27;20030;-49
2022/02/15 01:53:12;;;;;;;1.40;0.90;;;16.60;50.70;;;;;;5142039;27;20023;-52
2022/02/15 01:55:38;;;;;;;2.00;0.85;;;16.60;50.70;;;;;;5140942;27;20488;-52
2022/02/15 01:58:03;;;;;;;2.47;0.93;;;16.70;50.70;;;;;;5139603;27;20015;-49
2022/02/15 02:00:29;;;;;;;2.97;1.20;;;16.60;50.80;;;;;;5142030;27;20022;-52
2022/02/15 02:02:58;;;;;;;1.58;0.90;;;16.70;50.70;;;;;;5142864;27;20026;-52
2022/02/15 02:08:09;;;;;;;1.42;0.88;;;16.70;51.30;;;;;;5140561;27;20099;-52
2022/02/15 02:10:35;;;;;;;2.63;1.20;;;16.60;50.70;;;;;;5139582;27;20047;-49
2022/02/15 02:13:01;;;;;;;1.75;0.95;;;16.60;50.70;;;;;;5141090;27;20030;-52
2022/02/15 02:15:27;;;;;;;2.00;1.00;;;16.60;50.70;;;;;;5139890;27;20027;-52
2022/02/15 02:17:53;;;;;;;1.83;0.90;;;16.60;50.70;;;;;;5123793;27;20007;-51
2022/02/15 02:20:19;;;;;;;1.50;1.15;;;16.60;50.70;;;;;;5140866;27;20019;-49
2022/02/15 02:22:45;;;;;;;1.58;0.93;;;16.60;50.70;;;;;;5140953;27;20048;-51
2022/02/15 02:25:13;;;;;;;2.35;1.10;;;16.60;50.80;;;;;;5139383;27;20136;-53
2022/02/15 02:27:39;;;;;;;4.05;1.00;;;16.60;50.80;;;;;;5140507;27;20079;-52
2022/02/15 02:30:06;;;;;;;2.85;0.90;;;16.60;50.70;;;;;;5139448;27;20027;-53
2022/02/15 02:32:32;;;;;;;2.88;1.30;;;16.60;50.70;;;;;;5139831;27;20023;-52
2022/02/15 02:34:58;;;;;;;2.08;1.10;;;16.60;50.70;;;;;;5137504;27;20019;-48
2022/02/15 02:37:24;;;;;;;2.03;0.93;;;16.60;50.70;;;;;;5136530;27;20019;-48
2022/02/15 02:39:51;;;;;;;1.55;0.88;;;16.60;50.70;;;;;;5138436;27;20015;-51
2022/02/15 02:42:19;;;;;;;6.15;1.67;;;16.60;50.70;;;;;;5138582;27;20040;-52
2022/02/15 02:44:48;;;;;;;1.60;0.80;;;16.60;50.80;;;;;;5140633;27;20045;-47
2022/02/15 02:47:14;;;;;;;2.05;1.05;;;16.60;50.80;;;;;;5138442;27;20022;-51
2022/02/15 02:49:39;;;;;;;2.20;0.90;;;16.60;50.70;;;;;;5136427;27;20031;-51
2022/02/15 02:52:07;;;;;;;2.13;1.02;;;16.60;50.70;;;;;;5134856;27;20482;-48
2022/02/15 02:54:33;;;;;;;2.45;1.15;;;16.60;50.80;;;;;;5135640;27;20060;-51
2022/02/15 02:57:02;;;;;;;3.10;0.93;;;16.60;50.70;;;;;;5135140;27;20300;-54
2022/02/15 02:59:30;;;;;;;1.70;1.10;;;16.60;50.70;;;;;;5136722;27;20019;-52
2022/02/15 03:01:56;;;;;;;2.90;1.17;;;16.50;50.70;;;;;;5136474;27;20027;-48
2022/02/15 03:04:22;;;;;;;1.73;1.00;;;16.50;50.70;;;;;;5136515;27;20045;-49
2022/02/15 03:06:48;;;;;;;2.65;1.35;;;16.50;50.70;;;;;;5136674;27;20098;-48
2022/02/15 03:09:14;;;;;;;1.38;0.73;;;16.60;50.70;;;;;;5135123;27;20532;-51
2022/02/15 03:11:39;;;;;;;1.85;1.02;;;16.50;50.70;;;;;;5135893;27;20023;-51
2022/02/15 03:14:06;;;;;;;2.65;1.33;;;16.50;50.70;;;;;;5135955;27;20023;-51
2022/02/15 03:16:31;;;;;;;1.75;0.90;;;16.50;50.70;;;;;;5137051;27;20018;-47
2022/02/15 03:18:57;;;;;;;2.38;1.00;;;16.50;50.70;;;;;;5137434;27;20043;-51
2022/02/15 03:21:23;;;;;;;1.85;0.90;;;16.50;50.70;;;;;;5137793;27;20023;-49
2022/02/15 03:23:49;;;;;;;1.80;0.93;;;16.50;50.70;;;;;;5137131;27;20377;-52
2022/02/15 03:26:15;;;;;;;4.30;1.15;;;16.50;50.70;;;;;;5136086;27;20015;-51
2022/02/15 03:28:41;;;;;;;2.33;1.00;;;16.50;50.70;;;;;;5137019;27;20036;-50
2022/02/15 03:31:07;;;;;;;1.88;1.17;;;16.50;50.70;;;;;;5138263;27;20106;-46
2022/02/15 03:33:33;;;;;;;2.30;1.05;;;16.50;50.70;;;;;;5117655;27;20037;-50
2022/02/15 03:36:00;;;;;;;2.03;1.10;;;16.50;50.70;;;;;;5134333;27;20015;-47
2022/02/15 03:38:25;;;;;;;1.83;0.80;;;16.50;50.70;;;;;;5136515;27;20071;-48
2022/02/15 03:43:35;;;;;;;3.55;0.80;;;16.50;50.70;;;;;;5135562;27;20076;-53
2022/02/15 03:46:01;;;;;;;2.28;0.82;;;16.50;50.70;;;;;;5136149;27;20060;-46
2022/02/15 03:48:28;;;;;;;1.35;1.00;;;16.50;50.70;;;;;;5134495;27;20016;-50
2022/02/15 03:50:53;;;;;;;1.83;1.17;;;16.50;50.70;;;;;;5135052;27;20023;-50
2022/02/15 03:53:19;;;;;;;2.25;1.20;;;16.40;50.60;;;;;;5135072;27;20022;-49
2022/02/15 03:55:45;;;;;;;3.15;1.10;;;16.40;50.70;;;;;;5133679;27;20012;-47
2022/02/15 03:58:11;;;;;;;1.77;0.93;;;16.50;50.70;;;;;;5134722;27;20084;-49
2022/02/15 04:00:37;;;;;;;1.30;0.75;;;16.40;50.60;;;;;;5133667;27;20110;-47
2022/02/15 04:03:03;;;;;;;2.22;1.20;;;16.50;50.70;;;;;;5134989;27;20015;-50
2022/02/15 04:05:29;;;;;;;1.48;1.00;;;16.50;50.70;;;;;;5134695;27;20462;-49
2022/02/15 04:07:55;;;;;;;1.83;1.00;;;16.40;50.70;;;;;;5134649;27;20385;-48
2022/02/15 04:10:20;;;;;;;3.60;1.00;;;16.40;50.60;;;;;;5133372;27;20087;-50
2022/02/15 04:12:47;;;;;;;4.07;0.85;;;16.40;50.60;;;;;;5116215;27;20023;-46
2022/02/15 04:15:13;;;;;;;1.80;1.10;;;16.40;50.60;;;;;;5134676;27;20012;-49
2022/02/15 04:17:39;;;;;;;3.85;1.23;;;16.40;50.70;;;;;;5133064;27;20038;-49
2022/02/15 04:20:05;;;;;;;2.95;1.17;;;16.40;50.70;;;;;;5134193;27;20043;-50
2022/02/15 04:22:31;;;;;;;1.08;0.95;;;16.40;50.70;;;;;;5133194;27;20030;-49
2022/02/15 04:25:00;;;;;;;1.88;0.90;;;16.40;50.70;;;;;;5134275;27;20038;-50
2022/02/15 04:27:26;;;;;;;2.70;1.05;;;16.40;50.60;;;;;;5134074;27;20063;-49
2022/02/15 04:29:52;;;;;;;1.45;0.90;;;16.40;50.70;;;;;;5134411;27;20015;-48
2022/02/15 04:32:19;;;;;;;2.05;1.10;;;16.40;50.60;;;;;;5134447;27;20028;-49
2022/02/15 04:34:44;;;;;;;1.15;0.90;;;16.40;50.60;;;;;;5132993;27;20024;-47
2022/02/15 04:37:10;;;;;;;2.22;1.20;;;16.40;50.60;;;;;;5132862;27;20054;-46
2022/02/15 04:39:36;;;;;;;1.60;0.90;;;16.40;50.60;;;;;;5133130;27;20095;-46
2022/02/15 04:42:02;;;;;;;2.13;1.27;;;16.30;50.60;;;;;;5133339;27;20494;-47
2022/02/15 04:44:28;;;;;;;1.83;1.20;;;16.40;50.60;;;;;;5134645;28;20024;-47
2022/02/15 04:46:54;;;;;;;1.90;0.98;;;16.40;50.50;;;;;;5133671;27;20493;-47
2022/02/15 04:49:20;;;;;;;2.35;0.95;;;16.60;50.20;;;;;;5134326;28;20019;-49
2022/02/15 04:51:46;;;;;;;1.52;0.98;;;16.60;49.80;;;;;;5133866;28;20023;-49
2022/02/15 04:54:11;;;;;;;2.40;1.20;;;16.70;49.60;;;;;;5132886;28;20027;-47
2022/02/15 04:56:38;;;;;;;3.72;1.00;;;16.60;49.80;;;;;;5133021;28;20053;-49
2022/02/15 04:59:04;;;;;;;1.75;0.90;;;16.70;49.80;;;;;;5134167;28;20020;-45
2022/02/15 05:01:30;;;;;;;2.35;1.10;;;16.70;49.60;;;;;;5134162;28;20516;-46
2022/02/15 05:03:55;;;;;;;2.30;1.05;;;16.80;49.50;;;;;;5132958;28;20107;-46
2022/02/15 05:06:22;;;;;;;1.52;0.82;;;16.80;49.40;;;;;;5135247;27;20020;-50
2022/02/15 05:08:48;;;;;;;1.73;0.93;;;16.90;49.30;;;;;;5134038;27;20031;-49
2022/02/15 05:11:14;;;;;;;1.20;0.80;;;17.00;49.10;;;;;;5134233;28;20518;-48
2022/02/15 05:13:40;;;;;;;2.47;0.98;;;17.10;48.80;;;;;;5134208;27;20041;-48
2022/02/15 05:16:06;;;;;;;1.45;1.10;;;17.20;48.50;;;;;;5133953;28;20525;-48
2022/02/15 05:18:33;;;;;;;2.22;1.10;;;17.30;48.30;;;;;;5132705;28;20043;-48
2022/02/15 05:21:01;;;;;;;1.60;0.82;;;17.40;48.00;;;;;;5133889;28;20056;-46
2022/02/15 05:23:31;;;;;;;1.70;0.98;;;17.50;47.90;;;;;;5132646;28;20031;-45
2022/02/15 05:25:57;;;;;;;1.58;0.93;;;17.60;47.60;;;;;;5134120;27;20026;-50
2022/02/15 05:28:24;;;;;;;2.35;1.25;;;17.70;47.40;;;;;;5134543;27;20023;-45
2022/02/15 05:30:50;;;;;;;2.63;1.08;;;17.80;47.20;;;;;;5134507;28;20090;-46
2022/02/15 05:33:16;;;;;;;2.47;1.00;;;17.90;47.00;;;;;;5135362;28;20032;-48
2022/02/15 05:35:42;;;;;;;2.65;1.10;;;18.00;46.80;;;;;;5135177;27;20015;-49
2022/02/15 05:38:09;;;;;;;1.25;1.00;;;18.00;46.60;;;;;;5134945;28;20053;-45
2022/02/15 05:40:35;;;;;;;1.35;1.02;;;18.10;46.40;;;;;;5134977;28;20015;-49
2022/02/15 05:43:00;;;;;;;0.98;0.88;;;18.20;46.20;;;;;;5134035;28;20354;-48
2022/02/15 05:45:27;;;;;;;1.92;0.80;;;18.30;46.10;;;;;;5132754;28;20038;-48
2022/02/15 05:47:53;;;;;;;1.52;0.88;;;18.40;45.90;;;;;;5132858;28;20049;-49
2022/02/15 05:53:03;;;;;;;1.88;0.90;;;18.50;45.60;;;;;;5133295;28;20088;-50
2022/02/15 05:55:29;;;;;;;1.02;0.80;;;18.60;45.30;;;;;;5134127;28;20092;-48
2022/02/15 05:57:56;;;;;;;1.73;1.00;;;18.70;45.20;;;;;;5134193;27;20012;-48
2022/02/15 06:00:21;;;;;;;1.98;0.93;;;18.80;45.10;;;;;;5136189;27;20041;-49
2022/02/15 06:02:54;;;;;;;1.38;0.80;;;18.80;45.00;;;;;;5137460;27;20035;-46
2022/02/15 06:05:20;;;;;;;1.08;0.70;;;18.90;44.80;;;;;;5137650;27;20026;-48
2022/02/15 06:07:47;;;;;;;1.77;1.00;;;19.00;44.70;;;;;;5137494;27;20046;-47
2022/02/15 06:10:13;;;;;;;1.60;0.82;;;19.10;44.50;;;;;;5137984;27;20023;-46
2022/02/15 06:12:39;;;;;;;2.92;1.13;;;19.10;44.30;;;;;;5136755;27;20034;-48
2022/02/15 06:15:06;;;;;;;2.70;1.00;;;19.20;44.20;;;;;;5137021;27;20039;-47
2022/02/15 06:17:33;;;;;;;1.83;0.93;;;19.30;44.10;;;;;;5137032;27;20026;-47
2022/02/15 06:19:59;;;;;;;3.25;0.98;;;19.40;44.00;;;;;;5137228;27;20084;-49
2022/02/15 06:22:25;;;;;;;1.05;0.80;;;19.50;43.90;;;;;;5118865;27;20106;-48
2022/02/15 06:24:51;;;;;;;1.30;0.82;;;19.50;43.80;;;;;;5136262;27;20019;-45
2022/02/15 06:27:17;;;;;;;1.35;0.60;;;19.60;43.60;;;;;;5136763;27;20027;-47
2022/02/15 06:29:45;;;;;;;1.40;1.00;;;19.60;43.50;;;;;;5135149;27;20381;-48
2022/02/15 06:32:11;;;;;;;1.75;0.82;;;19.70;43.40;;;;;;5134957;27;20034;-49
2022/02/15 06:34:37;;;;;;;1.05;0.77;;;19.70;43.30;;;;;;5136668;27;20027;-47
2022/02/15 06:37:03;;;;;;;1.48;1.00;;;19.80;43.20;;;;;;5118270;27;20011;-45
2022/02/15 06:39:31;;;;;;;2.40;0.88;;;19.90;43.10;;;;;;5136745;27;20385;-47
2022/02/15 06:41:57;;;;;;;1.52;0.98;;;20.00;43.00;;;;;;5135113;27;20023;-46
2022/02/15 06:44:22;;;;;;;1.52;1.00;;;20.00;42.80;;;;;;5136032;27;20065;-49
2022/02/15 06:46:48;;;;;;;1.65;0.73;;;20.10;42.80;;;;;;5134855;27;20023;-49
2022/02/15 06:49:14;;;;;;;1.83;0.85;;;20.10;42.70;;;;;;5135862;27;20027;-47
2022/02/15 06:51:41;;;;;;;2.22;1.00;;;20.20;42.60;;;;;;5136110;27;20046;-46
2022/02/15 06:54:06;;;;;;;2.05;0.82;;;20.20;42.50;;;;;;5136189;27;20497;-48
2022/02/15 06:56:32;;;;;;;1.52;0.85;;;20.30;42.50;;;;;;5133976;27;20061;-46
2022/02/15 06:58:58;;;;;;;0.95;0.68;;;20.30;42.30;;;;;;5134554;27;20477;-47
2022/02/15 07:01:24;;;;;;;2.53;0.90;;;20.40;42.30;;;;;;5135803;27;20031;-46
2022/02/15 07:03:50;;;;;;;1.95;0.98;;;20.40;42.10;;;;;;5134957;27;20015;-47
2022/02/15 07:06:17;;;;;;;1.13;0.70;;;20.40;42.00;;;;;;5134512;27;20015;-47
2022/02/15 07:08:42;;;;;;;2.15;1.05;;;20.50;42.00;;;;;;5132536;27;20027;-47
2022/02/15 07:11:08;;;;;;;1.52;0.73;;;20.50;41.90;;;;;;5131921;27;20035;-48
2022/02/15 07:13:34;;;;;;;2.13;1.00;;;20.60;42.00;;;;;;5132546;27;20042;-48
2022/02/15 07:16:00;;;;;;;1.38;1.00;;;20.60;41.90;;;;;;5132190;27;20019;-48
2022/02/15 07:18:28;;;;;;;1.38;0.80;;;20.60;41.80;;;;;;5131029;27;20031;-45
2022/02/15 07:20:53;;;;;;;1.15;1.00;;;20.60;41.80;;;;;;5129731;27;20106;-47
2022/02/15 07:23:19;;;;;;;2.15;0.90;;;20.70;41.80;;;;;;5112683;27;20415;-49
2022/02/15 07:25:45;;;;;;;1.88;0.90;;;20.70;41.80;;;;;;5130607;27;20421;-48
2022/02/15 07:28:13;;;;;;;0.80;0.68;;;20.70;41.60;;;;;;5130426;27;20019;-44
2022/02/15 07:30:39;;;;;;;1.95;0.90;;;20.80;41.60;;;;;;5132698;27;20064;-46
2022/02/15 07:33:05;;;;;;;0.98;0.60;;;20.80;41.60;;;;;;5132718;27;20031;-45
2022/02/15 07:35:31;;;;;;;2.28;1.33;;;20.90;41.60;;;;;;5132148;27;20046;-54
2022/02/15 07:37:56;;;;;;;1.67;0.82;;;20.90;41.50;;;;;;5131933;27;20156;-46
2022/02/15 07:40:22;;;;;;;0.98;0.68;;;20.90;41.50;;;;;;5131147;27;20030;-46
2022/02/15 07:42:49;;;;;;;1.50;0.80;;;20.90;41.50;;;;;;5132068;27;20076;-47
2022/02/15 07:45:19;;;;;;;1.45;0.90;;;21.00;41.50;;;;;;5132210;27;20015;-49
2022/02/15 07:47:49;;;;;;;1.65;0.90;;;21.00;41.30;;;;;;5131466;27;20033;-46
2022/02/15 07:50:16;;;;;;;3.70;0.90;;;21.10;41.30;;;;;;5131741;27;20007;-45
2022/02/15 07:52:44;;;;;;;2.28;0.90;;;21.10;41.30;;;;;;5131394;27;20149;-45
2022/02/15 07:55:10;;;;;;;1.10;0.70;;;21.10;41.20;;;;;;5131227;27;20008;-47
2022/02/15 07:57:36;;;;;;;1.17;0.80;;;21.20;41.20;;;;;;5131165;27;20029;-45
2022/02/15 08:00:05;;;;;;;1.63;0.80;;;21.20;41.20;;;;;;5131555;27;20335;-46
2022/02/15 08:02:31;;;;;;;2.40;0.90;;;21.20;41.20;;;;;;5131365;27;20016;-46
2022/02/15 08:04:57;;;;;;;1.25;0.70;;;21.20;41.10;;;;;;5131533;27;20035;-45
2022/02/15 08:07:22;;;;;;;1.33;0.80;;;21.30;41.10;;;;;;5131341;27;20099;-50
2022/02/15 08:09:48;;;;;;;1.33;0.68;;;21.30;41.00;;;;;;5129793;27;20027;-46
2022/02/15 08:12:17;;;;;;;1.25;0.80;;;21.30;41.00;;;;;;5131830;27;20478;-47
2022/02/15 08:14:46;;;;;;;1.48;0.95;;;21.40;41.00;;;;;;5131650;27;20047;-48
2022/02/15 08:17:12;;;;;;;5.30;1.38;;;21.30;40.90;;;;;;5130927;27;20506;-46
2022/02/15 08:19:38;;;;;;;11.93;2.00;;;21.30;41.10;;;;;;5132690;27;20533;-44
2022/02/15 08:22:04;;;;;;;9.45;2.25;;;20.60;40.50;;;;;;5132192;27;20027;-45
2022/02/15 08:24:30;;;;;;;9.35;2.10;;;17.30;44.30;;;;;;5131589;27;20019;-44
2022/02/15 08:26:57;;;;;;;8.13;2.22;;;15.90;45.70;;;;;;5133266;27;20374;-43
2022/02/15 08:29:22;;;;;;;8.20;2.25;;;14.60;49.00;;;;;;5133337;27;20473;-45
2022/02/15 08:31:48;;;;;;;9.45;2.53;;;13.50;49.30;;;;;;5132928;27;20041;-45
2022/02/15 08:34:15;;;;;;;10.07;1.98;;;12.80;51.10;;;;;;5132794;27;20094;-45
2022/02/15 08:36:41;;;;;;;6.45;2.13;;;12.30;52.20;;;;;;5132882;27;20047;-46
2022/02/15 08:39:07;;;;;;;5.20;1.83;;;11.80;53.90;;;;;;5132903;27;20015;-44
2022/02/15 08:41:33;;;;;;;6.55;1.88;;;11.40;54.90;;;;;;5132855;27;20095;-44
2022/02/15 08:43:59;;;;;;;8.15;2.20;;;11.30;55.60;;;;;;5131189;27;20042;-43
2022/02/15 08:46:25;;;;;;;8.50;2.00;;;11.20;55.60;;;;;;5132518;27;20431;-43
2022/02/15 08:48:51;;;;;;;5.30;1.63;;;11.10;56.20;;;;;;5130951;28;20557;-44
2022/02/15 08:51:19;;;;;;;9.35;2.20;;;11.10;56.30;;;;;;5130960;28;20114;-43
2022/02/15 08:53:49;;;;;;;8.70;2.13;;;10.90;56.50;;;;;;5132894;27;20011;-45
2022/02/15 08:56:16;;;;;;;9.32;2.08;;;10.70;56.70;;;;;;5132815;27;20019;-43
2022/02/15 08:58:43;;;;;;;6.40;1.80;;;10.70;57.10;;;;;;5132698;27;20003;-47
2022/02/15 09:01:09;;;;;;;5.93;1.77;;;10.90;56.90;;;;;;5131424;28;20094;-42
2022/02/15 09:03:35;;;;;;;8.23;2.17;;;10.90;56.90;;;;;;5131627;27;20019;-42
2022/02/15 09:06:01;;;;;;;8.43;1.98;;;10.80;57.30;;;;;;5132881;28;20078;-43
2022/02/15 09:08:27;;;;;;;10.50;1.95;;;11.00;56.20;;;;;;5132578;27;20086;-42
2022/02/15 09:10:53;;;;;;;12.60;2.30;;;11.00;56.90;;;;;;5132993;27;20018;-43
2022/02/15 09:13:19;;;;;;;8.77;2.50;;;10.80;56.90;;;;;;5130953;28;20079;-42
2022/02/15 09:15:45;;;;;;;10.05;2.05;;;10.50;57.80;;;;;;5129749;28;20064;-43
2022/02/15 09:18:10;;;;;;;8.02;2.10;;;10.60;58.10;;;;;;5131473;28;20091;-44
2022/02/15 09:20:38;;;;;;;12.18;1.85;;;10.70;58.60;;;;;;5112981;28;20047;-45
2022/02/15 09:23:04;;;;;;;11.00;2.47;;;11.00;58.80;;;;;;5130578;27;20011;-43
2022/02/15 09:25:30;;;;;;;8.38;1.90;;;10.90;57.70;;;;;;5130783;27;20102;-44
2022/02/15 09:27:58;;;;;;;8.20;2.08;;;10.90;58.60;;;;;;5130832;28;20083;-45
2022/02/15 09:30:26;;;;;;;9.82;2.10;;;10.70;58.20;;;;;;5130453;28;20023;-45
2022/02/15 09:32:51;;;;;;;7.95;1.85;;;10.70;59.20;;;;;;5130959;27;20032;-45
2022/02/15 09:35:17;;;;;;;13.60;2.83;;;11.00;58.50;;;;;;5133608;27;20011;-45
2022/02/15 09:37:43;;;;;;;10.38;2.33;;;11.30;58.20;;;;;;5116384;27;20019;-46
2022/02/15 09:40:09;;;;;;;8.98;2.05;;;11.30;57.80;;;;;;5135687;27;20018;-49
2022/02/15 09:42:36;;;;;;;9.95;2.17;;;11.20;57.80;;;;;;5135778;27;20106;-45
2022/02/15 09:45:07;;;;;;;10.18;2.15;;;11.00;58.80;;;;;;5134881;27;20098;-44
2022/02/15 09:47:33;;;;;;;8.68;2.05;;;11.00;59.10;;;;;;5135646;27;20019;-49
2022/02/15 09:49:59;;;;;;;8.98;1.80;;;10.80;59.00;;;;;;5134147;27;20015;-45
2022/02/15 09:52:25;;;;;;;8.77;2.15;;;10.70;59.40;;;;;;5135432;27;20104;-44
2022/02/15 09:54:52;;;;;;;10.50;2.03;;;11.00;59.00;;;;;;5134449;27;20497;-47
2022/02/15 09:57:19;;;;;;;10.50;1.95;;;10.90;59.30;;;;;;5135464;27;20019;-45
2022/02/15 09:59:47;;;;;;;10.70;2.25;;;10.80;59.60;;;;;;5134274;27;20019;-45
2022/02/15 10:02:15;;;;;;;12.68;2.08;;;11.20;59.70;;;;;;5134186;27;20022;-43
2022/02/15 10:04:41;;;;;;;10.07;2.05;;;11.30;59.00;;;;;;5134292;27;20011;-46
2022/02/15 10:07:08;;;;;;;10.15;2.25;;;11.70;57.70;;;;;;5133302;27;20099;-47
2022/02/15 10:09:34;;;;;;;11.45;2.67;;;11.30;57.90;;;;;;5132235;27;20431;-43
2022/02/15 10:12:09;;;;;;;12.38;2.70;;;10.90;58.60;;;;;;5133885;27;20043;-45
2022/02/15 10:14:36;;;;;;;12.70;2.63;;;11.00;58.60;;;;;;5134213;27;20054;-41
2022/02/15 10:17:02;;;;;;;13.20;2.20;;;11.00;59.00;;;;;;5134448;27;20008;-42
2022/02/15 10:19:30;;;;;;;10.07;2.08;;;11.10;59.00;;;;;;5133074;27;20092;-43
2022/02/15 10:22:00;;;;;;;10.98;2.15;;;11.30;58.90;;;;;;5134044;27;20043;-41
2022/02/15 10:24:29;;;;;;;11.38;2.30;;;11.40;58.10;;;;;;5134061;27;20042;-42
2022/02/15 10:27:02;;;;;;;11.93;2.40;;;11.30;58.60;;;;;;5133579;27;20011;-45
2022/02/15 10:29:30;;;;;;;7.68;1.85;;;11.30;58.90;;;;;;5133548;27;20018;-44
2022/02/15 10:32:06;;;;;;;9.95;2.28;;;11.50;57.90;;;;;;5131491;27;20425;-45
2022/02/15 10:34:51;;;;;;;11.18;2.40;;;11.40;58.00;;;;;;5133781;27;20453;-43
2022/02/15 10:37:17;;;;;;;11.23;2.03;;;11.20;58.20;;;;;;5132429;27;20011;-43
2022/02/15 10:39:45;;;;;;;9.82;2.00;;;11.30;58.10;;;;;;5132361;27;20011;-43
2022/02/15 10:42:13;;;;;;;10.65;1.85;;;11.40;56.90;;;;;;5134139;27;20015;-42
2022/02/15 10:44:48;;;;;;;8.10;1.85;;;11.30;57.00;;;;;;5133472;27;20018;-41
2022/02/15 10:47:15;;;;;;;10.40;2.20;;;11.50;57.40;;;;;;5134425;27;20023;-42
2022/02/15 10:49:41;;;;;;;7.95;2.15;;;11.60;56.40;;;;;;5132667;27;20385;-43
2022/02/15 10:52:09;;;;;;;9.38;2.00;;;11.60;56.60;;;;;;5133651;27;20015;-41
2022/02/15 10:54:36;;;;;;;9.00;1.98;;;11.60;56.40;;;;;;5133727;27;20007;-42
2022/02/15 10:57:02;;;;;;;12.05;2.38;;;11.40;56.60;;;;;;5134070;27;20010;-44
2022/02/15 10:59:29;;;;;;;10.32;2.03;;;11.30;57.10;;;;;;5134801;27;20015;-45
2022/02/15 11:01:54;;;;;;;9.35;2.58;;;11.30;57.10;;;;;;5135333;27;20015;-44
2022/02/15 11:04:21;;;;;;;9.57;2.25;;;11.60;57.20;;;;;;5134145;27;20027;-43
2022/02/15 11:06:47;;;;;;;9.98;2.13;;;13.10;53.90;;;;;;5135395;27;20083;-45
2022/02/15 11:09:17;;;;;;;4.70;1.48;;;14.40;50.40;;;;;;5117050;27;20090;-43
2022/02/15 11:12:12;;;;;;;8.15;1.83;;;15.50;47.40;;;;;;5133900;27;20015;-43
2022/02/15 11:14:38;;;;;;;6.18;1.70;;;16.40;45.30;;;;;;5134090;27;20019;-47
2022/02/15 11:17:12;;;;;;;8.73;1.90;;;17.00;43.70;;;;;;5134432;27;20591;-44
2022/02/15 11:19:38;;;;;;;9.48;1.98;;;17.60;42.50;;;;;;5133078;27;20132;-44
2022/02/15 11:22:10;;;;;;;5.60;1.73;;;18.00;41.40;;;;;;5135176;27;20023;-44
2022/02/15 11:24:42;;;;;;;6.25;2.00;;;18.30;40.70;;;;;;5133829;27;20031;-45
2022/02/15 11:27:15;;;;;;;8.73;2.03;;;18.60;40.20;;;;;;5134391;27;20102;-46
2022/02/15 11:29:51;;;;;;;7.05;1.92;;;18.80;39.80;;;;;;5134227;27;20043;-45
2022/02/15 11:32:42;;;;;;;5.97;1.77;;;19.00;39.40;;;;;;5134093;27;20011;-43
2022/02/15 11:35:09;;;;;;;5.72;1.63;;;19.20;39.20;;;;;;5134773;27;20424;-48
2022/02/15 11:37:35;;;;;;;3.67;1.50;;;19.30;38.80;;;;;;5133822;27;20014;-45
2022/02/15 11:40:06;;;;;;;4.40;1.50;;;19.50;38.70;;;;;;5133482;27;20083;-44
2022/02/15 11:42:41;;;;;;;7.25;1.77;;;19.60;38.40;;;;;;5133921;27;20015;-47
2022/02/15 11:45:26;;;;;;;7.45;1.60;;;19.70;38.30;;;;;;5133395;27;20027;-43
2022/02/15 11:47:52;;;;;;;12.35;1.80;;;19.80;38.10;;;;;;5132101;27;20023;-49
2022/02/15 11:50:18;;;;;;;10.77;2.08;;;19.80;39.60;;;;;;5131108;27;20034;-46
2022/02/15 11:52:44;;;;;;;10.65;2.00;;;19.90;40.40;;;;;;5133407;27;20033;-48
2022/02/15 11:55:13;;;;;;;15.82;2.95;;;20.00;40.80;;;;;;5133381;27;20473;-46
2022/02/15 11:57:40;;;;;;;14.80;2.60;;;20.10;41.10;;;;;;5133812;27;20049;-49
2022/02/15 12:00:06;;;;;;;20.98;3.42;;;20.20;41.20;;;;;;5131566;27;20477;-48
2022/02/15 12:02:34;;;;;;;22.00;4.10;;;20.30;41.40;;;;;;5132611;27;20098;-49
2022/02/15 12:05:00;;;;;;;20.95;3.20;;;20.50;41.20;;;;;;5133168;27;20023;-47
2022/02/15 12:07:29;;;;;;;29.00;3.83;;;20.60;40.90;;;;;;5131805;27;20035;-45
2022/02/15 12:10:01;;;;;;;18.95;3.53;;;20.90;41.20;;;;;;5133792;27;20031;-45
2022/02/15 12:12:36;;;;;;;19.40;3.97;;;21.10;41.40;;;;;;5132908;27;20102;-47
2022/02/15 12:15:06;;;;;;;13.57;3.10;;;21.40;41.60;;;;;;5132783;27;20018;-45
2022/02/15 12:17:32;;;;;;;22.15;3.45;;;21.60;41.80;;;;;;5132347;27;20470;-45
2022/02/15 12:19:58;;;;;;;26.75;3.90;;;21.90;42.00;;;;;;5130644;27;20054;-46
2022/02/15 12:22:26;;;;;;;15.95;3.22;;;22.00;42.20;;;;;;5132542;27;20030;-47
2022/02/15 12:24:52;;;;;;;14.32;3.03;;;21.40;40.10;;;;;;5132556;27;20015;-47
2022/02/15 12:27:18;;;;;;;7.75;2.13;;;20.40;40.20;;;;;;5131426;27;20050;-45
2022/02/15 12:29:48;;;;;;;7.63;2.22;;;20.00;40.30;;;;;;5132277;27;20023;-44
2022/02/15 12:32:14;;;;;;;17.07;3.10;;;19.50;40.70;;;;;;5132490;27;20197;-45
2022/02/15 12:34:40;;;;;;;12.45;2.55;;;19.50;40.70;;;;;;5130774;27;20504;-46
2022/02/15 12:37:06;;;;;;;29.15;2.60;;;19.40;41.10;;;;;;5130692;27;20089;-43
2022/02/15 12:39:33;;;;;;;10.85;2.17;;;19.30;41.10;;;;;;5129349;27;20498;-43
2022/02/15 12:42:05;;;;;;;11.02;2.50;;;19.40;41.10;;;;;;5129219;27;20041;-44
2022/02/15 12:44:31;;;;;;;9.45;2.22;;;19.80;41.60;;;;;;5130213;27;20015;-43
2022/02/15 12:46:57;;;;;;;15.52;2.38;;;20.20;41.30;;;;;;5129875;27;20043;-41
2022/02/15 12:49:23;;;;;;;15.05;2.22;;;20.60;41.00;;;;;;5131366;28;20083;-42
2022/02/15 12:51:49;;;;;;;17.27;2.40;;;20.80;40.70;;;;;;5130501;28;20023;-43